Time;durP1;ratioP1;P1;durP2;ratioP2;P2;SDS_P1;SDS_P2;PMS_P1;PMS_P2;Temp;Humidity;BMP_temperature;BMP_pressure;BME280_temperature;BME280_humidity;BME280_pressure;Samples;Min_cycle;Max_cycle;Signal;HPM_P1;HPM_P2
2023/11/29 00:02:24;;;;;;;20.43;13.53;;;;;;;;;;5026361;28;20632;-69
2023/11/29 00:04:49;;;;;;;19.00;13.20;;;;;;;;;;5031955;28;20221;-69
2023/11/29 00:07:15;;;;;;;18.07;13.23;;;;;;;;;;5030328;28;20206;-69
2023/11/29 00:09:41;;;;;;;18.73;12.87;;;;;;;;;;5029245;28;20190;-69
2023/11/29 00:12:06;;;;;;;18.27;13.00;;;;;;;;;;5032184;28;20225;-69
2023/11/29 00:14:32;;;;;;;17.93;12.70;;;;;;;;;;5032447;28;20306;-69
2023/11/29 00:16:58;;;;;;;17.00;12.80;;;;;;;;;;5035280;28;20323;-69
2023/11/29 00:19:23;;;;;;;17.60;11.93;;;;;;;;;;5031194;28;20216;-69
2023/11/29 00:21:49;;;;;;;17.23;12.83;;;;;;;;;;5030992;28;20194;-69
2023/11/29 00:24:14;;;;;;;19.13;12.50;;;;;;;;;;5035937;28;20395;-70
2023/11/29 00:26:40;;;;;;;19.17;12.97;;;;;;;;;;5030958;28;20209;-69
2023/11/29 00:29:06;;;;;;;18.33;13.50;;;;;;;;;;5032817;28;20247;-69
2023/11/29 00:31:31;;;;;;;17.67;13.47;;;;;;;;;;5032349;28;20197;-70
2023/11/29 00:33:56;;;;;;;18.77;13.17;;;;;;;;;;5030180;28;20181;-70
2023/11/29 00:36:22;;;;;;;18.93;14.50;;;;;;;;;;5038679;28;20186;-70
2023/11/29 00:38:47;;;;;;;20.53;14.03;;;;;;;;;;5035102;28;20193;-69
2023/11/29 00:41:13;;;;;;;21.43;15.23;;;;;;;;;;5036471;28;20249;-71
2023/11/29 00:43:39;;;;;;;25.23;15.87;;;;;;;;;;5029409;28;20601;-71
2023/11/29 00:46:05;;;;;;;20.87;15.07;;;;;;;;;;5034409;28;20645;-71
2023/11/29 00:48:30;;;;;;;24.43;16.50;;;;;;;;;;5034941;28;20597;-71
2023/11/29 00:50:57;;;;;;;25.43;17.17;;;;;;;;;;5035447;28;20264;-73
2023/11/29 00:53:22;;;;;;;21.80;16.13;;;;;;;;;;5025914;28;20638;-70
2023/11/29 00:55:48;;;;;;;24.90;17.70;;;;;;;;;;5038498;28;20185;-70
2023/11/29 00:58:13;;;;;;;22.73;16.87;;;;;;;;;;5032631;28;20198;-71
2023/11/29 01:00:39;;;;;;;25.63;18.17;;;;;;;;;;5030513;28;20232;-72
2023/11/29 01:03:04;;;;;;;23.80;17.07;;;;;;;;;;5022993;28;20815;-72
2023/11/29 01:05:30;;;;;;;22.70;16.30;;;;;;;;;;5023605;28;20193;-72
2023/11/29 01:07:56;;;;;;;22.00;16.23;;;;;;;;;;5030961;28;20242;-72
2023/11/29 01:10:22;;;;;;;24.00;17.87;;;;;;;;;;5042966;28;20224;-72
2023/11/29 01:12:47;;;;;;;24.50;17.17;;;;;;;;;;5023941;28;20224;-72
2023/11/29 01:15:13;;;;;;;22.80;16.37;;;;;;;;;;5025226;28;20198;-72
2023/11/29 01:17:39;;;;;;;22.57;16.47;;;;;;;;;;5028601;28;20222;-72
2023/11/29 01:20:05;;;;;;;24.90;18.40;;;;;;;;;;5032319;28;20182;-73
2023/11/29 01:22:30;;;;;;;26.80;17.90;;;;;;;;;;5034217;28;20213;-72
2023/11/29 01:24:56;;;;;;;23.47;16.63;;;;;;;;;;5045037;28;20183;-72
2023/11/29 01:27:21;;;;;;;23.40;16.40;;;;;;;;;;5032028;28;20233;-72
2023/11/29 01:29:47;;;;;;;21.47;15.43;;;;;;;;;;5023243;28;20649;-72
2023/11/29 01:32:12;;;;;;;21.43;14.83;;;;;;;;;;5022080;28;20198;-71
2023/11/29 01:34:41;;;;;;;21.77;14.73;;;;;;;;;;5023758;28;20203;-70
2023/11/29 01:37:06;;;;;;;18.60;13.30;;;;;;;;;;5024777;28;20266;-70
2023/11/29 01:39:32;;;;;;;16.97;12.27;;;;;;;;;;5037889;28;20326;-70
2023/11/29 01:41:57;;;;;;;19.37;13.93;;;;;;;;;;5017114;28;20743;-70
2023/11/29 01:44:23;;;;;;;20.73;14.30;;;;;;;;;;5031090;28;20656;-70
2023/11/29 01:46:48;;;;;;;21.37;14.73;;;;;;;;;;5031135;28;20181;-70
2023/11/29 01:49:18;;;;;;;24.40;16.30;;;;;;;;;;5032074;28;20182;-70
2023/11/29 01:51:44;;;;;;;21.07;14.53;;;;;;;;;;5029587;28;20190;-71
2023/11/29 01:54:09;;;;;;;22.07;15.97;;;;;;;;;;5031474;28;20583;-70
2023/11/29 01:56:35;;;;;;;23.27;15.50;;;;;;;;;;5031320;28;20228;-70
2023/11/29 01:59:00;;;;;;;23.50;15.70;;;;;;;;;;5031594;28;20227;-70
2023/11/29 02:01:26;;;;;;;21.43;15.57;;;;;;;;;;5029552;28;20624;-70
2023/11/29 02:03:52;;;;;;;25.20;16.93;;;;;;;;;;5029561;28;20584;-69
2023/11/29 02:06:17;;;;;;;21.87;15.83;;;;;;;;;;5028393;28;20182;-69
2023/11/29 02:08:43;;;;;;;26.70;18.00;;;;;;;;;;5028197;28;20604;-69
2023/11/29 02:11:11;;;;;;;24.33;16.93;;;;;;;;;;5025764;28;20239;-68
2023/11/29 02:13:36;;;;;;;25.80;16.77;;;;;;;;;;5035469;28;20189;-68
2023/11/29 02:16:02;;;;;;;26.47;17.23;;;;;;;;;;5031914;28;20187;-68
2023/11/29 02:18:27;;;;;;;26.33;17.20;;;;;;;;;;5041231;28;20629;-68
2023/11/29 02:20:53;;;;;;;23.67;15.90;;;;;;;;;;5028131;28;20516;-68
2023/11/29 02:23:30;;;;;;;22.13;15.73;;;;;;;;;;5034885;28;20311;-68
2023/11/29 02:25:55;;;;;;;25.87;17.07;;;;;;;;;;5032914;28;20288;-68
2023/11/29 02:28:20;;;;;;;26.60;17.93;;;;;;;;;;5035159;28;20273;-69
2023/11/29 02:30:46;;;;;;;26.10;17.17;;;;;;;;;;5039204;28;20559;-69
2023/11/29 02:33:11;;;;;;;29.03;17.97;;;;;;;;;;5030827;28;20179;-68
2023/11/29 02:35:37;;;;;;;25.07;18.60;;;;;;;;;;5038959;28;20185;-69
2023/11/29 02:38:02;;;;;;;29.13;19.33;;;;;;;;;;5028993;28;20279;-68
2023/11/29 02:40:28;;;;;;;29.07;18.87;;;;;;;;;;5031264;28;20190;-69
2023/11/29 02:42:53;;;;;;;26.90;18.90;;;;;;;;;;5039794;28;20622;-69
2023/11/29 02:45:18;;;;;;;29.37;19.37;;;;;;;;;;5039630;28;20328;-69
2023/11/29 02:47:44;;;;;;;30.03;20.33;;;;;;;;;;5043527;28;20680;-70
2023/11/29 02:50:09;;;;;;;27.93;18.43;;;;;;;;;;5040288;28;20265;-68
2023/11/29 02:52:35;;;;;;;29.53;20.43;;;;;;;;;;5034294;28;20193;-69
2023/11/29 02:55:00;;;;;;;29.10;19.07;;;;;;;;;;5028606;28;20186;-69
2023/11/29 02:57:25;;;;;;;30.50;19.90;;;;;;;;;;5032117;28;20279;-68
2023/11/29 02:59:51;;;;;;;26.10;19.67;;;;;;;;;;5034417;28;20186;-69
2023/11/29 03:02:17;;;;;;;30.23;20.60;;;;;;;;;;5024104;28;20657;-68
2023/11/29 03:04:42;;;;;;;27.80;19.90;;;;;;;;;;5037086;28;20190;-69
2023/11/29 03:07:08;;;;;;;28.97;19.17;;;;;;;;;;5033994;28;20605;-70
2023/11/29 03:09:33;;;;;;;27.60;19.00;;;;;;;;;;5042039;28;20185;-69
2023/11/29 03:11:58;;;;;;;25.40;18.53;;;;;;;;;;5036495;28;20315;-69
2023/11/29 03:14:26;;;;;;;27.77;19.53;;;;;;;;;;5025198;28;20201;-69
2023/11/29 03:16:51;;;;;;;28.03;19.43;;;;;;;;;;5035640;28;20194;-69
2023/11/29 03:19:17;;;;;;;26.07;18.17;;;;;;;;;;5030233;28;20209;-69
2023/11/29 03:21:42;;;;;;;25.90;18.73;;;;;;;;;;5042997;28;20277;-70
2023/11/29 03:24:07;;;;;;;25.07;17.73;;;;;;;;;;5033263;28;20309;-70
2023/11/29 03:26:33;;;;;;;24.60;17.63;;;;;;;;;;5036094;28;20563;-70
2023/11/29 03:28:58;;;;;;;26.10;17.43;;;;;;;;;;5035829;28;20213;-71
2023/11/29 03:31:24;;;;;;;24.73;17.23;;;;;;;;;;5030368;28;20197;-70
2023/11/29 03:33:49;;;;;;;24.43;17.37;;;;;;;;;;5032967;28;20211;-70
2023/11/29 03:36:14;;;;;;;23.53;16.63;;;;;;;;;;5033203;28;20245;-69
2023/11/29 03:38:40;;;;;;;23.47;16.20;;;;;;;;;;5037571;28;20451;-70
2023/11/29 03:41:07;;;;;;;24.90;16.47;;;;;;;;;;5042094;28;20232;-69
2023/11/29 03:43:32;;;;;;;22.43;15.90;;;;;;;;;;5036263;28;20210;-70
2023/11/29 03:45:57;;;;;;;23.30;15.87;;;;;;;;;;5037016;28;20205;-71
2023/11/29 03:48:23;;;;;;;22.43;15.73;;;;;;;;;;5025927;28;20891;-70
2023/11/29 03:50:48;;;;;;;23.53;16.23;;;;;;;;;;5023628;28;20199;-70
2023/11/29 03:53:14;;;;;;;22.87;16.37;;;;;;;;;;5028107;28;20195;-71
2023/11/29 03:55:39;;;;;;;21.70;15.20;;;;;;;;;;5034839;28;20194;-71
2023/11/29 03:58:05;;;;;;;20.60;14.20;;;;;;;;;;5031657;28;20186;-71
2023/11/29 04:00:30;;;;;;;20.77;15.43;;;;;;;;;;5039055;28;20689;-72
2023/11/29 04:02:56;;;;;;;19.13;14.40;;;;;;;;;;5037307;28;20213;-75
2023/11/29 04:05:23;;;;;;;19.63;15.03;;;;;;;;;;5030331;28;20205;-72
2023/11/29 04:07:49;;;;;;;18.77;14.87;;;;;;;;;;5038012;28;20262;-73
2023/11/29 04:10:14;;;;;;;18.80;14.77;;;;;;;;;;5033779;28;20189;-76
2023/11/29 04:12:40;;;;;;;20.33;15.67;;;;;;;;;;5035139;28;20548;-76
2023/11/29 04:15:06;;;;;;;19.70;15.00;;;;;;;;;;5037056;28;20190;-76
2023/11/29 04:17:31;;;;;;;19.80;13.40;;;;;;;;;;5030870;28;20177;-75
2023/11/29 04:19:57;;;;;;;18.27;13.37;;;;;;;;;;5038230;28;20680;-75
2023/11/29 04:22:22;;;;;;;19.20;13.73;;;;;;;;;;5028999;28;20690;-74
2023/11/29 04:24:47;;;;;;;15.13;12.57;;;;;;;;;;5029892;28;20221;-75
2023/11/29 04:27:14;;;;;;;13.87;10.53;;;;;;;;;;5034376;28;20189;-75
2023/11/29 04:29:40;;;;;;;15.33;12.23;;;;;;;;;;5035528;28;20233;-75
2023/11/29 04:32:06;;;;;;;16.23;11.57;;;;;;;;;;5039366;28;20268;-75
2023/11/29 04:34:32;;;;;;;14.37;11.70;;;;;;;;;;5033327;28;20256;-75
2023/11/29 04:36:57;;;;;;;14.77;11.50;;;;;;;;;;5035224;28;20194;-75
2023/11/29 04:39:22;;;;;;;14.37;11.23;;;;;;;;;;5030349;28;20218;-76
2023/11/29 04:41:48;;;;;;;16.07;11.30;;;;;;;;;;5029735;28;20233;-76
2023/11/29 04:44:14;;;;;;;15.40;11.47;;;;;;;;;;5031401;28;20252;-75
2023/11/29 04:46:39;;;;;;;16.30;11.80;;;;;;;;;;5029340;28;20612;-75
2023/11/29 04:49:05;;;;;;;18.77;13.20;;;;;;;;;;5035442;28;20278;-76
2023/11/29 04:51:31;;;;;;;17.73;13.20;;;;;;;;;;5045247;28;20182;-75
2023/11/29 04:53:56;;;;;;;19.63;13.87;;;;;;;;;;5035065;28;20190;-75
2023/11/29 04:56:23;;;;;;;18.60;14.17;;;;;;;;;;5053146;28;20200;-75
2023/11/29 04:58:48;;;;;;;22.10;15.93;;;;;;;;;;5030255;28;20193;-76
2023/11/29 05:01:14;;;;;;;24.13;16.67;;;;;;;;;;5034952;28;20645;-74
2023/11/29 05:03:40;;;;;;;23.93;17.30;;;;;;;;;;5031483;28;20283;-76
2023/11/29 05:06:07;;;;;;;25.07;18.03;;;;;;;;;;5024046;28;20329;-75
2023/11/29 05:08:33;;;;;;;25.40;17.73;;;;;;;;;;5021713;28;20670;-74
2023/11/29 05:11:00;;;;;;;24.87;16.70;;;;;;;;;;5031131;28;20229;-74
2023/11/29 05:13:25;;;;;;;25.33;17.20;;;;;;;;;;5030118;28;20186;-75
2023/11/29 05:15:51;;;;;;;25.90;18.20;;;;;;;;;;5040843;28;20235;-74
2023/11/29 05:18:16;;;;;;;28.33;18.07;;;;;;;;;;5029847;28;20695;-73
2023/11/29 05:20:42;;;;;;;27.73;17.70;;;;;;;;;;5038520;28;20274;-73
2023/11/29 05:23:07;;;;;;;29.27;19.27;;;;;;;;;;5046601;28;20211;-73
2023/11/29 05:25:33;;;;;;;27.10;17.93;;;;;;;;;;5031927;28;20212;-74
2023/11/29 05:27:58;;;;;;;26.47;18.47;;;;;;;;;;5052486;28;20236;-74
2023/11/29 05:30:24;;;;;;;26.43;18.87;;;;;;;;;;5040319;28;20199;-73
2023/11/29 05:32:50;;;;;;;29.17;19.07;;;;;;;;;;5027438;28;20213;-75
2023/11/29 05:35:15;;;;;;;27.93;18.50;;;;;;;;;;5033360;28;20282;-73
2023/11/29 05:37:41;;;;;;;26.33;18.10;;;;;;;;;;5025607;28;20189;-74
2023/11/29 05:40:08;;;;;;;26.47;18.70;;;;;;;;;;5019680;28;20189;-74
2023/11/29 05:42:38;;;;;;;27.40;18.87;;;;;;;;;;5026175;28;20319;-74
2023/11/29 05:45:05;;;;;;;26.80;18.77;;;;;;;;;;5020989;28;20193;-73
2023/11/29 05:47:31;;;;;;;25.13;17.93;;;;;;;;;;5027893;28;20182;-74
2023/11/29 05:49:57;;;;;;;28.83;18.27;;;;;;;;;;5050260;28;20548;-75
2023/11/29 05:52:22;;;;;;;32.60;18.57;;;;;;;;;;5040118;28;20185;-75
2023/11/29 05:54:47;;;;;;;29.70;18.53;;;;;;;;;;5017417;28;20212;-75
2023/11/29 05:57:13;;;;;;;28.40;19.67;;;;;;;;;;5032021;28;20191;-75
2023/11/29 05:59:39;;;;;;;30.13;19.33;;;;;;;;;;5034168;28;20197;-75
2023/11/29 06:02:05;;;;;;;26.23;17.13;;;;;;;;;;5023764;28;20347;-74
2023/11/29 06:04:34;;;;;;;29.23;17.43;;;;;;;;;;5021562;28;20693;-74
2023/11/29 06:06:59;;;;;;;27.33;18.43;;;;;;;;;;5025013;28;20214;-73
2023/11/29 06:09:28;;;;;;;26.77;18.47;;;;;;;;;;5029206;28;20749;-72
2023/11/29 06:12:00;;;;;;;27.63;17.10;;;;;;;;;;5029033;28;20288;-71
2023/11/29 06:14:26;;;;;;;26.73;17.87;;;;;;;;;;5033303;28;20186;-72
2023/11/29 06:16:52;;;;;;;22.87;16.70;;;;;;;;;;5032561;28;20198;-73
2023/11/29 06:19:17;;;;;;;25.80;17.37;;;;;;;;;;5035338;28;20300;-71
2023/11/29 06:21:44;;;;;;;21.30;15.13;;;;;;;;;;5035677;28;20593;-72
2023/11/29 06:24:10;;;;;;;21.17;14.47;;;;;;;;;;5031158;28;20213;-72
2023/11/29 06:26:37;;;;;;;26.30;14.10;;;;;;;;;;5023252;28;20201;-71
2023/11/29 06:29:04;;;;;;;19.80;12.90;;;;;;;;;;5021986;28;20186;-72
2023/11/29 06:31:32;;;;;;;25.20;14.07;;;;;;;;;;5033261;28;20189;-74
2023/11/29 06:33:58;;;;;;;17.17;11.60;;;;;;;;;;5028290;28;20200;-73
2023/11/29 06:36:23;;;;;;;21.90;11.97;;;;;;;;;;5030468;28;20205;-73
2023/11/29 06:38:49;;;;;;;16.80;10.73;;;;;;;;;;5029959;28;20197;-74
2023/11/29 06:41:15;;;;;;;21.13;10.77;;;;;;;;;;5034932;28;20204;-73
2023/11/29 06:43:40;;;;;;;16.47;10.57;;;;;;;;;;5031636;28;21080;-74
2023/11/29 06:46:06;;;;;;;16.03;10.10;;;;;;;;;;5028316;28;20498;-73
2023/11/29 06:48:34;;;;;;;16.73;9.87;;;;;;;;;;5031589;28;20196;-73
2023/11/29 06:51:02;;;;;;;15.47;9.73;;;;;;;;;;5034103;28;20214;-73
2023/11/29 06:53:28;;;;;;;12.53;8.70;;;;;;;;;;5032461;28;20182;-74
2023/11/29 06:55:54;;;;;;;15.40;8.53;;;;;;;;;;5033203;28;20216;-73
2023/11/29 06:58:20;;;;;;;14.77;8.20;;;;;;;;;;5023217;28;20559;-74
2023/11/29 07:00:46;;;;;;;10.60;6.67;;;;;;;;;;5024129;28;20702;-74
2023/11/29 07:03:12;;;;;;;14.03;7.60;;;;;;;;;;5026099;28;20246;-74
2023/11/29 07:05:38;;;;;;;12.73;7.10;;;;;;;;;;5020988;28;20668;-74
2023/11/29 07:08:04;;;;;;;13.90;7.07;;;;;;;;;;5030142;28;20190;-74
2023/11/29 07:10:30;;;;;;;14.30;7.10;;;;;;;;;;5037159;28;20178;-74
2023/11/29 07:12:56;;;;;;;12.70;6.53;;;;;;;;;;5020495;28;20289;-75
2023/11/29 07:15:21;;;;;;;12.80;6.50;;;;;;;;;;5028480;28;20265;-74
2023/11/29 07:17:47;;;;;;;12.10;5.50;;;;;;;;;;5027323;28;20213;-74
2023/11/29 07:20:12;;;;;;;8.80;5.07;;;;;;;;;;5022506;28;20256;-75
2023/11/29 07:22:38;;;;;;;7.73;5.37;;;;;;;;;;5015720;28;20697;-75
2023/11/29 07:25:04;;;;;;;7.63;5.00;;;;;;;;;;5013932;28;20179;-74
2023/11/29 07:27:31;;;;;;;8.23;4.80;;;;;;;;;;5027104;28;20182;-74
2023/11/29 07:29:56;;;;;;;11.47;4.40;;;;;;;;;;5019497;28;20189;-74
2023/11/29 07:32:22;;;;;;;12.10;4.67;;;;;;;;;;5042561;28;20284;-74
2023/11/29 07:34:51;;;;;;;9.40;4.10;;;;;;;;;;5023682;28;20221;-74
2023/11/29 07:37:21;;;;;;;9.37;4.10;;;;;;;;;;5015661;28;20201;-74
2023/11/29 07:39:47;;;;;;;10.03;3.90;;;;;;;;;;5035057;28;20201;-74
2023/11/29 07:42:13;;;;;;;10.47;3.63;;;;;;;;;;5017449;28;20191;-73
2023/11/29 07:44:39;;;;;;;16.83;4.43;;;;;;;;;;5018368;28;20187;-74
2023/11/29 07:47:05;;;;;;;9.77;3.67;;;;;;;;;;5022952;28;20277;-74
2023/11/29 07:49:30;;;;;;;9.97;4.10;;;;;;;;;;5025809;28;20641;-74
2023/11/29 07:51:56;;;;;;;7.70;3.57;;;;;;;;;;5025515;28;20235;-73
2023/11/29 07:54:22;;;;;;;7.73;4.10;;;;;;;;;;5022035;28;20669;-73
2023/11/29 07:56:47;;;;;;;11.20;4.63;;;;;;;;;;5009948;28;20178;-74
2023/11/29 07:59:14;;;;;;;10.37;4.33;;;;;;;;;;5020747;28;20192;-74
2023/11/29 08:01:40;;;;;;;11.27;4.50;;;;;;;;;;5023618;28;20191;-74
2023/11/29 08:04:05;;;;;;;10.63;4.30;;;;;;;;;;5023413;28;20625;-73
2023/11/29 08:06:31;;;;;;;12.27;4.47;;;;;;;;;;5025174;28;22475;-73
2023/11/29 08:08:57;;;;;;;7.57;4.97;;;;;;;;;;5023902;28;20189;-73
2023/11/29 08:11:23;;;;;;;9.07;5.00;;;;;;;;;;5028710;28;20244;-73
2023/11/29 08:13:49;;;;;;;12.27;5.70;;;;;;;;;;5024865;28;20520;-73
2023/11/29 08:16:15;;;;;;;14.53;5.43;;;;;;;;;;5033463;28;20699;-72
2023/11/29 08:18:40;;;;;;;11.83;6.00;;;;;;;;;;5029004;28;20318;-72
2023/11/29 08:21:06;;;;;;;16.00;6.37;;;;;;;;;;5036674;28;20265;-73
2023/11/29 08:23:31;;;;;;;14.03;6.17;;;;;;;;;;5026018;28;20286;-73
2023/11/29 08:25:57;;;;;;;12.20;6.37;;;;;;;;;;5034068;28;20669;-72
2023/11/29 08:28:23;;;;;;;13.83;5.50;;;;;;;;;;5034774;28;20529;-73
2023/11/29 08:30:49;;;;;;;11.53;6.00;;;;;;;;;;5021490;28;20278;-72
2023/11/29 08:33:15;;;;;;;14.77;6.50;;;;;;;;;;5019729;28;20198;-72
2023/11/29 08:35:41;;;;;;;11.63;5.60;;;;;;;;;;5037432;28;20323;-73
2023/11/29 08:38:07;;;;;;;9.70;5.60;;;;;;;;;;5027906;28;20329;-72
2023/11/29 08:40:34;;;;;;;18.43;5.47;;;;;;;;;;5023397;28;20201;-74
2023/11/29 08:43:00;;;;;;;14.10;5.70;;;;;;;;;;5020379;28;20699;-73
2023/11/29 08:45:26;;;;;;;16.27;5.43;;;;;;;;;;5017600;28;20396;-73
2023/11/29 08:47:51;;;;;;;11.77;6.07;;;;;;;;;;5025983;28;20404;-73
2023/11/29 08:50:17;;;;;;;12.33;6.17;;;;;;;;;;5024678;28;20186;-73
2023/11/29 08:52:43;;;;;;;10.20;5.40;;;;;;;;;;5025611;28;20220;-72
2023/11/29 08:55:09;;;;;;;9.00;5.13;;;;;;;;;;5021607;28;20248;-72
2023/11/29 08:57:35;;;;;;;15.57;5.20;;;;;;;;;;5019266;28;20506;-72
2023/11/29 09:00:01;;;;;;;8.90;5.37;;;;;;;;;;5028199;28;20186;-72
2023/11/29 09:02:29;;;;;;;8.63;5.17;;;;;;;;;;5019001;28;20202;-72
2023/11/29 09:04:55;;;;;;;9.40;5.20;;;;;;;;;;5025075;28;20194;-72
2023/11/29 09:07:21;;;;;;;12.97;5.57;;;;;;;;;;5024150;28;20542;-72
2023/11/29 09:09:47;;;;;;;8.67;4.80;;;;;;;;;;5024081;28;20634;-73
2023/11/29 09:12:15;;;;;;;10.83;4.90;;;;;;;;;;5020044;28;20245;-72
2023/11/29 09:14:41;;;;;;;9.57;5.00;;;;;;;;;;5027417;28;20231;-71
2023/11/29 09:17:06;;;;;;;11.03;4.50;;;;;;;;;;5009445;28;20190;-71
2023/11/29 09:19:32;;;;;;;10.03;4.53;;;;;;;;;;5037267;28;20726;-71
2023/11/29 09:22:03;;;;;;;9.00;5.90;;;;;;;;;;5032448;28;20186;-71
2023/11/29 09:24:29;;;;;;;8.10;4.70;;;;;;;;;;5033115;28;20311;-71
2023/11/29 09:26:54;;;;;;;13.20;4.80;;;;;;;;;;5033902;28;20197;-71
2023/11/29 09:29:21;;;;;;;7.13;4.27;;;;;;;;;;5031081;28;20648;-71
2023/11/29 09:31:47;;;;;;;12.30;4.60;;;;;;;;;;5024191;28;20277;-71
2023/11/29 09:34:13;;;;;;;8.33;4.63;;;;;;;;;;5020948;28;20187;-71
2023/11/29 09:36:38;;;;;;;8.00;4.70;;;;;;;;;;5026671;28;20268;-71
2023/11/29 09:39:12;;;;;;;9.27;4.40;;;;;;;;;;5027377;28;20186;-71
2023/11/29 09:41:39;;;;;;;6.87;4.27;;;;;;;;;;5026158;28;20200;-71
2023/11/29 09:44:05;;;;;;;8.20;3.90;;;;;;;;;;5024198;28;20210;-71
2023/11/29 09:46:31;;;;;;;7.70;4.23;;;;;;;;;;5028840;28;20268;-71
2023/11/29 09:48:58;;;;;;;9.97;4.83;;;;;;;;;;5025587;28;20273;-71
2023/11/29 09:51:24;;;;;;;11.43;3.70;;;;;;;;;;5028303;28;20237;-71
2023/11/29 09:53:49;;;;;;;6.60;3.80;;;;;;;;;;5028137;28;20186;-71
2023/11/29 09:56:14;;;;;;;11.07;4.60;;;;;;;;;;5016668;28;20209;-71
2023/11/29 09:58:40;;;;;;;8.10;4.00;;;;;;;;;;5052166;28;20564;-71
2023/11/29 10:01:05;;;;;;;10.33;4.40;;;;;;;;;;5034999;28;20190;-70
2023/11/29 10:03:31;;;;;;;10.17;4.73;;;;;;;;;;5027614;28;20717;-71
2023/11/29 10:05:56;;;;;;;10.40;4.37;;;;;;;;;;5030303;28;20271;-71
2023/11/29 10:08:23;;;;;;;8.40;4.10;;;;;;;;;;5030775;28;20553;-71
2023/11/29 10:10:50;;;;;;;11.20;4.17;;;;;;;;;;5021712;28;20228;-71
2023/11/29 10:13:15;;;;;;;10.80;4.50;;;;;;;;;;5020923;28;20642;-71
2023/11/29 10:15:49;;;;;;;9.90;3.97;;;;;;;;;;5028469;28;20189;-71
2023/11/29 10:18:16;;;;;;;7.33;4.00;;;;;;;;;;5028852;28;20268;-71
2023/11/29 10:20:46;;;;;;;11.47;3.97;;;;;;;;;;5033090;28;20878;-71
2023/11/29 10:23:14;;;;;;;8.40;3.70;;;;;;;;;;5027513;28;20595;-71
2023/11/29 10:25:43;;;;;;;7.47;3.30;;;;;;;;;;5028522;28;20589;-71
2023/11/29 10:28:08;;;;;;;6.50;3.57;;;;;;;;;;5024353;28;20611;-71
2023/11/29 10:30:33;;;;;;;7.00;3.43;;;;;;;;;;5020762;28;20417;-70
2023/11/29 10:33:01;;;;;;;7.67;3.40;;;;;;;;;;5013334;28;20735;-71
2023/11/29 10:35:33;;;;;;;6.33;3.40;;;;;;;;;;5025346;28;20650;-71
2023/11/29 10:38:12;;;;;;;7.93;3.33;;;;;;;;;;5016980;28;20201;-70
2023/11/29 10:40:39;;;;;;;8.37;3.70;;;;;;;;;;5023395;28;20190;-71
2023/11/29 10:43:07;;;;;;;5.70;2.93;;;;;;;;;;5030147;28;20214;-71
2023/11/29 10:45:36;;;;;;;6.87;3.57;;;;;;;;;;5030633;28;20629;-71
2023/11/29 10:48:11;;;;;;;4.60;3.23;;;;;;;;;;5028641;28;20269;-72
2023/11/29 10:50:38;;;;;;;6.93;2.97;;;;;;;;;;5046662;28;20186;-72
2023/11/29 10:53:04;;;;;;;6.33;2.73;;;;;;;;;;5029064;28;20207;-71
2023/11/29 10:55:35;;;;;;;5.87;3.00;;;;;;;;;;5024434;28;20182;-72
2023/11/29 10:58:18;;;;;;;7.97;3.20;;;;;;;;;;5022349;28;20190;-72
2023/11/29 11:00:45;;;;;;;7.37;3.07;;;;;;;;;;5014538;28;20228;-71
2023/11/29 11:03:41;;;;;;;9.83;3.37;;;;;;;;;;5027893;28;20246;-71
2023/11/29 11:06:21;;;;;;;7.33;2.93;;;;;;;;;;5021664;28;20203;-71
2023/11/29 11:08:48;;;;;;;10.40;2.87;;;;;;;;;;5014962;28;20329;-71
2023/11/29 11:11:45;;;;;;;6.73;2.90;;;;;;;;;;5022131;28;20622;-71
2023/11/29 11:14:19;;;;;;;5.70;2.77;;;;;;;;;;5020206;28;20601;-71
2023/11/29 11:17:03;;;;;;;11.00;2.80;;;;;;;;;;5040482;28;20190;-72
2023/11/29 11:19:28;;;;;;;5.87;2.60;;;;;;;;;;5023003;28;20222;-71
2023/11/29 11:21:54;;;;;;;7.77;2.90;;;;;;;;;;5019212;28;20387;-71
2023/11/29 11:24:39;;;;;;;5.27;2.83;;;;;;;;;;5027564;28;20264;-71
2023/11/29 11:27:06;;;;;;;4.30;3.13;;;;;;;;;;5027685;28;20186;-71
2023/11/29 11:29:32;;;;;;;4.57;2.53;;;;;;;;;;5016875;28;20217;-71
2023/11/29 11:31:58;;;;;;;6.73;2.40;;;;;;;;;;5026361;28;20615;-71
2023/11/29 11:34:24;;;;;;;4.93;2.10;;;;;;;;;;5030844;28;20197;-71
2023/11/29 11:36:49;;;;;;;5.83;2.23;;;;;;;;;;5011582;28;20225;-71
2023/11/29 11:39:16;;;;;;;5.10;2.40;;;;;;;;;;5024620;28;20218;-71
2023/11/29 11:41:42;;;;;;;4.30;2.30;;;;;;;;;;5020565;28;20193;-70
2023/11/29 11:44:08;;;;;;;7.63;2.30;;;;;;;;;;5026493;28;20218;-71
2023/11/29 11:46:34;;;;;;;9.33;2.00;;;;;;;;;;5021856;28;20177;-70
2023/11/29 11:49:00;;;;;;;3.33;1.93;;;;;;;;;;5021786;28;20714;-71
2023/11/29 11:51:25;;;;;;;6.00;1.93;;;;;;;;;;5015885;28;20266;-71
2023/11/29 11:53:51;;;;;;;6.93;2.03;;;;;;;;;;5024799;28;20182;-71
2023/11/29 11:56:21;;;;;;;7.77;1.90;;;;;;;;;;5027908;28;20328;-70
2023/11/29 11:58:47;;;;;;;4.43;1.80;;;;;;;;;;5014169;28;20197;-71
2023/11/29 12:01:13;;;;;;;3.80;1.83;;;;;;;;;;5020232;28;20262;-71
2023/11/29 12:03:39;;;;;;;3.50;1.90;;;;;;;;;;5018147;28;20274;-71
2023/11/29 12:06:05;;;;;;;5.17;2.10;;;;;;;;;;5028577;28;20190;-71
2023/11/29 12:08:34;;;;;;;4.30;2.13;;;;;;;;;;5026720;28;20296;-71
2023/11/29 12:11:01;;;;;;;5.87;2.13;;;;;;;;;;5037959;28;20234;-71
2023/11/29 12:13:26;;;;;;;5.63;1.63;;;;;;;;;;5036788;28;20272;-71
2023/11/29 12:15:51;;;;;;;6.40;1.60;;;;;;;;;;5029474;28;20328;-70
2023/11/29 12:18:17;;;;;;;3.27;1.93;;;;;;;;;;5038335;28;20696;-70
2023/11/29 12:20:43;;;;;;;3.60;2.30;;;;;;;;;;5020622;28;20658;-70
2023/11/29 12:23:11;;;;;;;7.23;2.23;;;;;;;;;;5027045;28;20685;-70
2023/11/29 12:25:36;;;;;;;3.50;1.93;;;;;;;;;;5023651;28;20665;-70
2023/11/29 12:28:02;;;;;;;6.53;2.27;;;;;;;;;;5022253;28;20266;-70
2023/11/29 12:30:27;;;;;;;4.00;2.07;;;;;;;;;;5025985;28;20189;-70
2023/11/29 12:32:55;;;;;;;3.13;1.57;;;;;;;;;;5016326;28;20265;-71
2023/11/29 12:35:21;;;;;;;7.37;2.07;;;;;;;;;;5024832;28;20189;-71
2023/11/29 12:37:47;;;;;;;7.47;1.93;;;;;;;;;;5024471;28;20186;-71
2023/11/29 12:40:16;;;;;;;4.73;1.63;;;;;;;;;;5026900;28;20228;-71
2023/11/29 12:42:43;;;;;;;4.63;1.90;;;;;;;;;;5014025;28;20191;-70
2023/11/29 12:45:09;;;;;;;3.03;1.73;;;;;;;;;;5027253;28;20236;-70
2023/11/29 12:47:34;;;;;;;4.93;2.10;;;;;;;;;;5028064;28;20806;-70
2023/11/29 12:50:00;;;;;;;4.50;1.97;;;;;;;;;;5015062;28;20237;-70
2023/11/29 12:52:25;;;;;;;7.17;2.30;;;;;;;;;;5028466;28;20192;-70
2023/11/29 12:54:51;;;;;;;4.73;2.00;;;;;;;;;;5016066;28;20198;-70
2023/11/29 12:57:17;;;;;;;6.10;1.90;;;;;;;;;;5014368;28;20471;-70
2023/11/29 12:59:43;;;;;;;4.37;2.30;;;;;;;;;;5023693;28;20578;-69
2023/11/29 13:02:08;;;;;;;4.50;2.00;;;;;;;;;;5012392;28;20201;-70
2023/11/29 13:04:34;;;;;;;4.07;1.93;;;;;;;;;;5028970;28;20217;-70
2023/11/29 13:06:59;;;;;;;4.43;2.20;;;;;;;;;;5039202;28;20260;-70
2023/11/29 13:09:25;;;;;;;6.20;1.93;;;;;;;;;;5021561;28;20287;-70
2023/11/29 13:11:50;;;;;;;3.93;2.20;;;;;;;;;;5013805;28;20313;-70
2023/11/29 13:14:16;;;;;;;4.90;2.37;;;;;;;;;;5028770;28;20197;-70
2023/11/29 13:16:41;;;;;;;6.50;2.40;;;;;;;;;;5027614;28;20716;-70
2023/11/29 13:19:06;;;;;;;5.53;2.10;;;;;;;;;;5027692;28;20201;-68
2023/11/29 13:21:32;;;;;;;6.33;2.27;;;;;;;;;;5026875;28;20223;-69
2023/11/29 13:23:59;;;;;;;9.53;2.30;;;;;;;;;;5027215;28;20226;-68
2023/11/29 13:26:25;;;;;;;9.23;2.53;;;;;;;;;;5028879;28;20178;-68
2023/11/29 13:28:51;;;;;;;4.67;2.27;;;;;;;;;;5021528;28;20526;-69
2023/11/29 13:31:16;;;;;;;5.63;2.23;;;;;;;;;;5023913;28;20190;-69
2023/11/29 13:33:42;;;;;;;4.67;2.03;;;;;;;;;;5027878;28;20509;-68
2023/11/29 13:36:08;;;;;;;2.60;1.63;;;;;;;;;;5028136;28;20212;-69
2023/11/29 13:38:33;;;;;;;5.50;2.07;;;;;;;;;;5018000;28;20182;-69
2023/11/29 13:40:59;;;;;;;5.37;1.83;;;;;;;;;;5022355;28;20232;-69
2023/11/29 13:43:24;;;;;;;3.87;1.70;;;;;;;;;;5021029;28;20210;-69
2023/11/29 13:45:50;;;;;;;4.87;2.13;;;;;;;;;;5027902;28;20186;-69
2023/11/29 13:48:16;;;;;;;6.73;2.20;;;;;;;;;;5028945;28;20189;-69
2023/11/29 13:50:42;;;;;;;5.93;2.03;;;;;;;;;;5028910;28;20264;-69
2023/11/29 13:53:08;;;;;;;6.67;2.10;;;;;;;;;;5019064;28;20445;-69
2023/11/29 13:55:34;;;;;;;5.07;2.50;;;;;;;;;;5023003;28;20193;-69
2023/11/29 13:57:59;;;;;;;5.93;2.30;;;;;;;;;;5012567;28;20200;-69
2023/11/29 14:00:25;;;;;;;3.07;2.23;;;;;;;;;;5017738;28;20584;-69
2023/11/29 14:02:51;;;;;;;5.83;1.97;;;;;;;;;;5039491;28;20217;-69
2023/11/29 14:05:17;;;;;;;4.57;1.70;;;;;;;;;;5025567;28;20190;-69
2023/11/29 14:07:42;;;;;;;4.30;1.70;;;;;;;;;;5026728;28;20201;-68
2023/11/29 14:10:09;;;;;;;5.97;2.00;;;;;;;;;;5030697;28;20665;-68
2023/11/29 14:12:34;;;;;;;2.10;1.30;;;;;;;;;;5031408;28;20657;-68
2023/11/29 14:15:00;;;;;;;4.27;1.80;;;;;;;;;;5032486;28;20247;-68
2023/11/29 14:17:25;;;;;;;3.63;1.63;;;;;;;;;;5026392;28;20877;-68
2023/11/29 14:19:50;;;;;;;6.83;2.17;;;;;;;;;;5023106;28;20214;-68
2023/11/29 14:22:20;;;;;;;5.20;1.90;;;;;;;;;;5028327;28;20188;-69
2023/11/29 14:24:46;;;;;;;3.20;1.50;;;;;;;;;;5023256;28;20213;-70